• Join FlightAware (Why Join?)
  • Login
  • US Flag 
Rudolph Flight #1: Arrived! 
02:08PM EST


 

Airport Tracker/Info


-or-


 

Live Flight TrackerFlight Track Log ✈ SKW4664 ✈ 01-May-2013 ✈ KFSD - KMSP

Flight Track Log - Related Links

Times and Time Zones

All times are in EDT time to prevent confusion due to time zone crossing. See the SKW4664 flight status page for this flight to view local times or setup timezone preferences in your user account.

Time Position Orientation Groundspeed Altitude Reporting Facility
EDT Latitude Longitude Course Direction KTS MPH feet Rate Location/Type
12:07PM 43.6858 -96.6167 51° Northeast 244 281 23,000  Level Minneapolis Center
12:08PM 43.7286 -96.5364 54° Northeast 266 306 23,000  Level Minneapolis Center
12:09PM 43.7808 -96.4375 54° Northeast 310 357 23,000 -4,200 Level Minneapolis Center
12:10PM 44.0298 -95.9134 52° Northeast  Level FlightAware Approximate
12:10PM 43.8314 -96.3556 49° Northeast 298 343 14,400  Level Minneapolis Center
12:11PM 43.8853 -96.2506 55° Northeast 332 382 16,100 1,320 Climbing Minneapolis Center
12:12PM 43.9575 -96.1075 55° Northeast 367 422 17,200 900 Climbing Minneapolis Center
12:13PM 44.0239 -95.9844 53° Northeast 394 453 18,000 1,080 Climbing Minneapolis Center
12:14PM 44.0897 -95.8589 54° Northeast 400 460 19,500 1,080 Climbing Minneapolis Center
12:15PM 44.1475 -95.7253 59° Northeast 402 463 20,300 780 Climbing Minneapolis Center
12:16PM 44.1969 -95.5778 65° Northeast 412 474 21,200 780 Climbing Minneapolis Center
12:17PM 44.2483 -95.4289 64° Northeast 421 484 22,000 600 Climbing Minneapolis Center
12:18PM 44.2997 -95.2753 65° Northeast 433 498 22,500 480 Climbing Minneapolis Center
12:19PM 44.3689 -95.0831 63° Northeast 458 527 23,000 240 Climbing Minneapolis Center
12:20PM 44.4278 -94.9144 64° Northeast 474 545 23,000 -1,320 Level Minneapolis Center
12:21PM 44.4881 -94.7397 64° Northeast 493 567 20,400 -2,460 Descending Minneapolis Center
12:22PM 44.5492 -94.5722 63° Northeast 491 565 18,000 -2,580 Descending Minneapolis Center
12:23PM 44.6058 -94.4128 63° Northeast 462 532 15,200 -2,700 Descending Minneapolis Center
12:24PM 44.6578 -94.2642 64° Northeast 426 490 12,500 -2,040 Descending Minneapolis Center
12:25PM 44.6992 -94.1319 66° East 372 428 11,100 -720 Descending Minneapolis Center
12:26PM 44.7347 -93.9681 73° East 367 422 11,100  Level Minneapolis Center
12:27PM 44.7656 -93.8311 72° East 367 422 11,100  Level Minneapolis Center
12:29PM 44.7964 -93.6950 72° East 366 421 11,100 -240 Level Minneapolis Center
12:30PM 44.8264 -93.5569 73° East 369 425 10,700 -840 Descending Minneapolis Center
12:31PM 44.8522 -93.4425 72° East 300 345 9,500 -1,260 Descending Minneapolis Center
12:32PM 44.8331 -93.3450 105° East 274 315 8,100 -780 Descending Minneapolis Center
12:33PM 44.7836 -93.2586 129° Southeast 281 323 8,000 -1,140 Descending Minneapolis Center
12:34PM 44.7328 -93.1678 128° Southeast 275 316 5,800 -1,920 Descending Minneapolis Center
12:35PM 44.7222 -93.0661 98° East 263 303 4,100 -1,020 Descending Minneapolis Center
12:36PM 44.7492 -93.0056 58° Northeast 187 215 3,800 -540 Descending Minneapolis Center
12:37PM 44.7950 -93.0186 349° North 151 174 3,100 -360 Descending Minneapolis Center
12:38PM 44.8164 -93.0706 300° West 154 177 3,100  Level Minneapolis Center